createdAt,value
2023-09-04T00:01:51.925Z,58.21
2023-09-04T00:04:18.152Z,58.82
2023-09-04T00:06:44.356Z,58.88
2023-09-04T00:09:10.515Z,58.90
2023-09-04T00:11:36.692Z,59.41
2023-09-04T00:14:02.921Z,59.06
2023-09-04T00:16:29.100Z,58.25
2023-09-04T00:18:55.347Z,57.79
2023-09-04T00:21:21.521Z,56.37
2023-09-04T00:23:47.685Z,57.69
2023-09-04T00:26:13.865Z,58.03
2023-09-04T00:28:40.022Z,58.03
2023-09-04T00:31:06.208Z,57.96
2023-09-04T00:33:32.379Z,58.32
2023-09-04T00:35:58.548Z,57.46
2023-09-04T00:38:24.956Z,58.05
2023-09-04T00:40:51.240Z,58.05
2023-09-04T00:43:17.396Z,58.62
2023-09-04T00:45:43.589Z,58.82
2023-09-04T00:48:09.788Z,58.69
2023-09-04T00:50:35.979Z,59.09
2023-09-04T00:53:02.159Z,59.33
2023-09-04T00:55:28.411Z,59.26
2023-09-04T00:57:54.592Z,57.67
2023-09-04T01:00:20.768Z,58.40
2023-09-04T01:02:47.074Z,57.48
2023-09-04T01:05:13.327Z,57.80
2023-09-04T01:07:39.473Z,58.51
2023-09-04T01:10:05.654Z,58.27
2023-09-04T01:12:31.808Z,59.32
2023-09-04T01:14:57.980Z,58.74
2023-09-04T01:17:24.134Z,58.44
2023-09-04T01:19:50.286Z,57.98
2023-09-04T01:22:16.441Z,58.62
2023-09-04T01:24:42.601Z,58.62
2023-09-04T01:27:08.766Z,58.41
2023-09-04T01:29:34.925Z,58.30
2023-09-04T01:32:01.101Z,58.31
2023-09-04T01:34:27.273Z,58.23
2023-09-04T01:36:53.468Z,58.14
2023-09-04T01:39:19.639Z,58.05
2023-09-04T01:41:45.802Z,59.01
2023-09-04T01:44:11.954Z,58.79
2023-09-04T01:46:38.157Z,59.29
2023-09-04T01:49:04.358Z,59.24
2023-09-04T01:51:30.535Z,59.09
2023-09-04T01:53:56.705Z,58.39
2023-09-04T01:56:22.974Z,58.00
2023-09-04T01:58:49.139Z,58.17
2023-09-04T02:01:15.356Z,58.53
2023-09-04T02:03:41.693Z,59.04
2023-09-04T02:06:07.922Z,58.91
2023-09-04T02:08:34.082Z,58.84
2023-09-04T02:11:00.434Z,59.21
2023-09-04T02:13:26.605Z,58.56
2023-09-04T02:15:52.816Z,58.52
2023-09-04T02:18:19.041Z,58.04
2023-09-04T02:20:45.224Z,57.85
2023-09-04T02:23:11.405Z,58.14
2023-09-04T02:25:37.587Z,57.67
2023-09-04T02:28:03.743Z,59.07
2023-09-04T02:30:29.914Z,58.95
2023-09-04T02:32:56.088Z,59.32
2023-09-04T02:35:22.290Z,59.30
2023-09-04T02:37:48.437Z,58.86
2023-09-04T02:40:14.594Z,58.86
2023-09-04T02:42:40.766Z,58.79
2023-09-04T02:45:06.924Z,59.08
2023-09-04T02:47:33.080Z,59.34
2023-09-04T02:49:59.250Z,58.64
2023-09-04T02:52:25.430Z,58.57
2023-09-04T02:54:51.632Z,58.02
2023-09-04T02:57:17.799Z,57.09
2023-09-04T02:59:43.969Z,58.14
2023-09-04T03:02:10.148Z,58.23
2023-09-04T03:04:36.336Z,57.26
2023-09-04T03:07:02.532Z,56.32
2023-09-04T03:09:28.692Z,55.94
2023-09-04T03:11:54.858Z,56.39
2023-09-04T03:14:21.048Z,56.18
2023-09-04T03:16:47.210Z,57.00
2023-09-04T03:19:13.389Z,57.12
2023-09-04T03:21:39.555Z,57.00
2023-09-04T03:24:05.746Z,56.79
2023-09-04T03:26:31.890Z,56.17
2023-09-04T03:28:58.037Z,55.58
2023-09-04T03:31:24.263Z,55.73
2023-09-04T03:33:50.473Z,54.48
2023-09-04T03:36:16.634Z,55.14
2023-09-04T03:38:42.815Z,55.38
2023-09-04T03:41:08.969Z,56.02
2023-09-04T03:43:35.168Z,55.75
2023-09-04T03:46:01.392Z,54.82
2023-09-04T03:48:27.835Z,53.96
2023-09-04T03:50:54.430Z,54.18
2023-09-04T03:53:20.583Z,54.42
2023-09-04T03:55:46.864Z,53.82
2023-09-04T03:58:13.051Z,54.18
2023-09-04T04:00:39.269Z,53.85
2023-09-04T04:03:05.614Z,54.09
2023-09-04T04:05:31.842Z,53.63
2023-09-04T04:07:58.012Z,54.32
2023-09-04T04:10:24.171Z,53.72
2023-09-04T04:12:50.351Z,54.53
2023-09-04T04:15:16.518Z,54.83
2023-09-04T04:17:42.727Z,55.41
2023-09-04T04:20:08.911Z,55.27
2023-09-04T04:22:35.072Z,55.46
2023-09-04T04:25:01.240Z,55.68
2023-09-04T04:27:27.391Z,56.07
2023-09-04T04:29:53.561Z,54.73
2023-09-04T04:32:19.916Z,53.50
2023-09-04T04:34:46.134Z,53.42
2023-09-04T04:37:12.291Z,53.80
2023-09-04T04:39:38.459Z,54.19
2023-09-04T04:42:04.627Z,54.00
2023-09-04T04:44:30.783Z,55.13
2023-09-04T04:46:56.934Z,53.03
2023-09-04T04:49:23.094Z,54.93
2023-09-04T04:51:49.242Z,55.23
2023-09-04T04:54:15.421Z,54.60
2023-09-04T04:56:41.581Z,54.77
2023-09-04T04:59:07.729Z,55.16
2023-09-04T05:01:33.908Z,55.38
2023-09-04T05:04:00.125Z,53.99
2023-09-04T05:06:26.304Z,53.40
2023-09-04T05:08:52.461Z,53.47
2023-09-04T05:11:18.618Z,53.34
2023-09-04T05:13:44.803Z,52.73
2023-09-04T05:16:11.041Z,52.97
2023-09-04T05:18:37.370Z,53.89
2023-09-04T05:21:03.969Z,53.68
2023-09-04T05:23:30.129Z,53.48
2023-09-04T05:25:56.416Z,53.50
2023-09-04T05:28:22.823Z,53.57
2023-09-04T05:30:49.127Z,52.64
2023-09-04T05:33:15.299Z,52.33
2023-09-04T05:35:41.474Z,51.47
2023-09-04T05:38:07.657Z,52.26
2023-09-04T05:40:33.800Z,52.15
2023-09-04T05:42:59.938Z,52.77
2023-09-04T05:45:26.115Z,52.16
2023-09-04T05:47:52.370Z,52.34
2023-09-04T05:50:18.554Z,52.30
2023-09-04T05:52:44.732Z,53.13
2023-09-04T05:55:10.886Z,52.46
2023-09-04T05:57:37.032Z,52.13
2023-09-04T06:00:03.194Z,51.63
2023-09-04T06:02:29.450Z,52.77
2023-09-04T06:04:55.665Z,53.29
2023-09-04T06:07:21.974Z,54.08
2023-09-04T06:09:48.179Z,54.63
2023-09-04T06:12:14.388Z,54.36
2023-09-04T06:14:40.555Z,54.08
2023-09-04T06:17:06.698Z,53.59
2023-09-04T06:19:32.859Z,53.37
2023-09-04T06:21:59.018Z,53.29
2023-09-04T06:24:25.186Z,52.86
2023-09-04T06:26:51.353Z,52.46
2023-09-04T06:29:17.508Z,51.69
2023-09-04T06:31:43.692Z,53.21
2023-09-04T06:34:09.852Z,52.16
2023-09-04T06:36:36.020Z,51.20
2023-09-04T06:39:02.182Z,50.79
2023-09-04T06:41:28.338Z,49.94
2023-09-04T06:43:54.486Z,50.48
2023-09-04T06:46:20.737Z,50.79
2023-09-04T06:48:46.915Z,51.49
2023-09-04T06:51:13.064Z,51.34
2023-09-04T06:53:39.300Z,50.33
2023-09-04T06:56:05.473Z,49.89
2023-09-04T06:58:32.689Z,49.92
2023-09-04T07:00:58.866Z,49.63
2023-09-04T07:03:25.388Z,48.79
2023-09-04T07:05:51.797Z,49.13
2023-09-04T07:08:18.000Z,48.62
2023-09-04T07:10:44.169Z,48.24
2023-09-04T07:13:10.335Z,47.43
2023-09-04T07:15:36.503Z,46.99
2023-09-04T07:18:02.720Z,48.05
2023-09-04T07:20:29.085Z,48.00
2023-09-04T07:23:03.361Z,47.47
2023-09-04T07:25:40.787Z,45.72
2023-09-04T07:28:06.947Z,46.13
2023-09-04T07:30:33.123Z,45.66
2023-09-04T07:32:59.363Z,44.85
2023-09-04T07:35:25.549Z,44.84
2023-09-04T07:37:51.694Z,44.91
2023-09-04T07:40:17.850Z,44.66
2023-09-04T07:42:44.010Z,44.74
2023-09-04T07:45:10.191Z,43.18
2023-09-04T07:47:36.391Z,42.87
2023-09-04T07:50:02.634Z,41.33
2023-09-04T07:52:28.822Z,40.66
2023-09-04T07:54:54.982Z,41.65
2023-09-04T07:57:21.126Z,40.35
2023-09-04T07:59:47.304Z,39.65
2023-09-04T08:02:14.976Z,39.29
2023-09-04T08:04:41.199Z,38.68
2023-09-04T08:07:07.406Z,36.59
2023-09-04T08:09:33.610Z,37.77
2023-09-04T08:11:59.754Z,39.19
2023-09-04T08:14:25.979Z,41.80
2023-09-04T08:16:52.161Z,41.29
2023-09-04T08:19:18.343Z,40.34
2023-09-04T08:21:44.545Z,40.46
2023-09-04T08:24:10.822Z,38.47
2023-09-04T08:26:36.979Z,40.17
2023-09-04T08:29:03.146Z,39.44
2023-09-04T08:31:29.345Z,38.82
2023-09-04T08:33:55.537Z,39.62
2023-09-04T08:36:21.721Z,39.78
2023-09-04T08:38:47.909Z,37.21
2023-09-04T08:41:14.204Z,38.85
2023-09-04T08:43:40.366Z,37.40
2023-09-04T08:46:07.578Z,37.61
2023-09-04T08:48:33.963Z,40.15
2023-09-04T08:51:00.182Z,40.41
2023-09-04T08:53:26.720Z,39.06
2023-09-04T08:55:52.906Z,37.47
2023-09-04T08:58:19.328Z,37.75
2023-09-04T09:00:45.505Z,36.17
2023-09-04T09:03:17.004Z,34.30
2023-09-04T09:05:43.606Z,34.75
2023-09-04T09:08:09.766Z,30.91
2023-09-04T09:10:35.913Z,36.03
2023-09-04T09:13:02.121Z,38.10
2023-09-04T09:15:28.333Z,35.88
2023-09-04T09:17:54.664Z,35.33
2023-09-04T09:20:21.168Z,35.54
2023-09-04T09:22:47.320Z,34.26
2023-09-04T09:25:13.510Z,34.64
2023-09-04T09:27:39.688Z,35.16
2023-09-04T09:30:05.844Z,32.40
2023-09-04T09:32:32.073Z,33.56
2023-09-04T09:34:58.334Z,33.83
2023-09-04T09:37:24.506Z,34.29
2023-09-04T09:39:50.650Z,34.52
2023-09-04T09:42:16.839Z,32.88
2023-09-04T09:44:43.010Z,28.17
2023-09-04T09:47:09.186Z,27.67
2023-09-04T09:49:35.334Z,28.19
2023-09-04T09:52:01.488Z,27.08
2023-09-04T09:54:27.656Z,35.33
2023-09-04T09:56:53.800Z,34.16
2023-09-04T09:59:19.958Z,32.67
2023-09-04T10:01:46.159Z,29.83
2023-09-04T10:04:12.362Z,30.10
2023-09-04T10:06:38.558Z,30.57
2023-09-04T10:09:04.746Z,29.59
2023-09-04T10:11:30.892Z,29.86
2023-09-04T10:13:57.056Z,31.05
2023-09-04T10:16:23.221Z,30.25
2023-09-04T10:18:49.381Z,29.24
2023-09-04T10:21:15.539Z,31.12
2023-09-04T10:23:41.717Z,30.85
2023-09-04T10:26:07.924Z,30.33
2023-09-04T10:28:43.235Z,30.15
2023-09-04T10:31:11.217Z,27.57
2023-09-04T10:33:37.410Z,28.95
2023-09-04T10:36:03.650Z,30.52
2023-09-04T10:38:29.826Z,29.21
2023-09-04T10:40:56.010Z,29.92
2023-09-04T10:43:22.388Z,29.51
2023-09-04T10:45:48.959Z,29.93
2023-09-04T10:48:15.148Z,29.17
2023-09-04T10:50:41.330Z,29.40
2023-09-04T10:53:07.489Z,29.36
2023-09-04T10:55:33.647Z,30.65
2023-09-04T10:57:59.839Z,31.89
2023-09-04T11:00:26.022Z,29.90
2023-09-04T11:02:52.212Z,31.19
2023-09-04T11:05:18.393Z,28.70
2023-09-04T11:07:44.550Z,29.92
2023-09-04T11:10:10.725Z,31.34
2023-09-04T11:12:36.879Z,28.84
2023-09-04T11:15:03.088Z,27.03
2023-09-04T11:17:29.301Z,27.99
2023-09-04T11:19:55.483Z,27.70
2023-09-04T11:22:21.664Z,28.78
2023-09-04T11:24:47.821Z,28.29
2023-09-04T11:27:13.984Z,28.36
2023-09-04T11:29:40.153Z,30.64
2023-09-04T11:33:21.852Z,30.25
2023-09-04T11:34:52.459Z,30.50
2023-09-04T11:37:18.636Z,29.32
2023-09-04T11:39:45.316Z,29.08
2023-09-04T11:42:11.606Z,29.00
2023-09-04T11:44:37.765Z,29.09
2023-09-04T11:47:03.969Z,28.83
2023-09-04T11:49:30.124Z,29.32
2023-09-04T11:51:56.272Z,30.89
2023-09-04T11:54:22.439Z,29.86
2023-09-04T11:56:48.611Z,28.52
2023-09-04T11:59:14.782Z,28.10
2023-09-04T12:01:40.956Z,27.48
2023-09-04T12:04:07.156Z,26.00
2023-09-04T12:06:33.363Z,26.88
2023-09-04T12:08:59.540Z,28.00
2023-09-04T12:11:25.705Z,27.73
2023-09-04T12:13:51.852Z,27.51
2023-09-04T12:16:18.091Z,27.82
2023-09-04T12:18:44.361Z,27.94
2023-09-04T12:21:10.899Z,28.12
2023-09-04T12:23:37.538Z,26.71
2023-09-04T12:26:03.703Z,27.71
2023-09-04T12:28:30.002Z,27.83
2023-09-04T12:30:56.152Z,29.90
2023-09-04T12:33:22.307Z,30.09
2023-09-04T12:35:48.480Z,31.15
2023-09-04T12:38:14.647Z,27.97
2023-09-04T12:40:40.899Z,28.91
2023-09-04T12:43:07.070Z,28.06
2023-09-04T12:45:33.269Z,28.71
2023-09-04T12:47:59.499Z,28.65
2023-09-04T12:50:25.680Z,26.81
2023-09-04T12:52:51.850Z,28.55
2023-09-04T12:55:18.004Z,29.56
2023-09-04T12:57:44.169Z,27.04
2023-09-04T13:00:10.324Z,25.79
2023-09-04T13:02:36.658Z,26.58
2023-09-04T13:05:02.882Z,26.68
2023-09-04T13:07:29.058Z,27.75
2023-09-04T13:09:55.217Z,26.88
2023-09-04T13:12:21.380Z,26.28
2023-09-04T13:14:47.551Z,27.14
2023-09-04T13:17:13.705Z,26.17
2023-09-04T13:19:39.909Z,26.06
2023-09-04T13:22:06.121Z,26.74
2023-09-04T13:24:32.365Z,24.88
2023-09-04T13:26:58.554Z,25.85
2023-09-04T13:29:24.770Z,26.76
2023-09-04T13:31:50.926Z,24.74
2023-09-04T13:34:17.118Z,24.01
2023-09-04T13:36:43.299Z,23.86
2023-09-04T13:39:09.524Z,24.63
2023-09-04T13:41:35.705Z,24.67
2023-09-04T13:44:01.873Z,24.82
2023-09-04T13:46:28.059Z,23.09
2023-09-04T13:48:54.260Z,20.82
2023-09-04T13:51:20.422Z,21.15
2023-09-04T13:53:46.600Z,21.71
2023-09-04T13:56:12.795Z,22.85
2023-09-04T13:58:38.969Z,25.00
2023-09-04T14:01:05.160Z,25.48
2023-09-04T14:03:31.303Z,24.08
2023-09-04T14:05:57.483Z,24.89
2023-09-04T14:08:23.652Z,21.81
2023-09-04T14:10:49.823Z,21.85
2023-09-04T14:13:15.992Z,22.40
2023-09-04T14:15:42.209Z,21.86
2023-09-04T14:18:08.434Z,21.84
2023-09-04T14:20:34.673Z,21.00
2023-09-04T14:23:00.843Z,22.09
2023-09-04T14:25:27.027Z,21.92
2023-09-04T14:27:53.188Z,23.32
2023-09-04T14:30:19.364Z,23.55
2023-09-04T14:32:45.606Z,23.88
2023-09-04T14:35:11.807Z,23.57
2023-09-04T14:37:37.983Z,24.16
2023-09-04T14:40:04.207Z,23.74
2023-09-04T14:42:30.493Z,23.85
2023-09-04T14:44:56.641Z,23.25
2023-09-04T14:47:22.821Z,25.36
2023-09-04T14:49:49.000Z,26.44
2023-09-04T14:52:15.169Z,25.82
2023-09-04T14:54:41.331Z,25.04
2023-09-04T14:57:07.516Z,25.70
2023-09-04T14:59:33.688Z,25.99
2023-09-04T15:01:59.953Z,26.79
2023-09-04T15:04:26.187Z,26.84
2023-09-04T15:06:52.364Z,26.63
2023-09-04T15:09:18.632Z,26.47
2023-09-04T15:11:44.805Z,27.59
2023-09-04T15:14:10.970Z,28.10
2023-09-04T15:16:37.164Z,27.37
2023-09-04T15:19:03.380Z,27.63
2023-09-04T15:21:29.546Z,26.97
2023-09-04T15:23:55.692Z,26.91
2023-09-04T15:26:21.856Z,26.78
2023-09-04T15:28:48.016Z,28.00
2023-09-04T15:31:14.235Z,27.50
2023-09-04T15:33:40.435Z,27.32
2023-09-04T15:36:06.580Z,28.04
2023-09-04T15:38:33.265Z,28.59
2023-09-04T15:40:59.608Z,28.84
2023-09-04T15:43:25.767Z,29.27
2023-09-04T15:45:52.021Z,29.14
2023-09-04T15:48:18.303Z,29.02
2023-09-04T15:50:44.526Z,29.11
2023-09-04T15:53:10.737Z,30.47
2023-09-04T15:55:36.890Z,29.78
2023-09-04T15:58:03.063Z,29.92
2023-09-04T16:00:29.308Z,32.20
2023-09-04T16:02:55.573Z,31.99
2023-09-04T16:05:21.849Z,32.67
2023-09-04T16:07:48.018Z,32.13
2023-09-04T16:10:14.216Z,32.88
2023-09-04T16:12:40.382Z,32.76
2023-09-04T16:15:06.565Z,33.73
2023-09-04T16:17:32.746Z,34.33
2023-09-04T16:19:58.939Z,34.35
2023-09-04T16:22:25.131Z,34.67
2023-09-04T16:24:51.281Z,35.18
2023-09-04T16:27:17.452Z,35.90
2023-09-04T16:29:43.622Z,36.32
2023-09-04T16:32:09.834Z,36.52
2023-09-04T16:34:36.014Z,37.19
2023-09-04T16:37:02.185Z,36.94
2023-09-04T16:39:28.339Z,37.65
2023-09-04T16:41:54.497Z,37.88
2023-09-04T16:44:20.663Z,38.71
2023-09-04T16:46:46.867Z,38.85
2023-09-04T16:49:13.056Z,38.78
2023-09-04T16:51:50.058Z,37.92
2023-09-04T16:54:20.426Z,37.62
2023-09-04T16:56:46.584Z,37.05
2023-09-04T16:59:12.732Z,39.22
2023-09-04T17:01:38.951Z,39.93
2023-09-04T17:04:05.143Z,37.88
2023-09-04T17:06:31.307Z,38.28
2023-09-04T17:08:57.479Z,37.43
2023-09-04T17:11:23.624Z,39.67
2023-09-04T17:13:49.791Z,39.50
2023-09-04T17:16:15.990Z,40.01
2023-09-04T17:18:42.212Z,39.50
2023-09-04T17:21:08.485Z,40.01
2023-09-04T17:23:34.635Z,40.36
2023-09-04T17:26:00.788Z,40.90
2023-09-04T17:28:27.125Z,40.70
2023-09-04T17:30:53.596Z,40.68
2023-09-04T17:33:19.753Z,41.52
2023-09-04T17:35:45.907Z,41.00
2023-09-04T17:38:12.076Z,41.56
2023-09-04T17:40:38.220Z,40.83
2023-09-04T17:43:04.398Z,41.17
2023-09-04T17:45:30.603Z,38.90
2023-09-04T17:47:56.845Z,41.28
2023-09-04T17:50:23.061Z,41.38
2023-09-04T17:52:49.226Z,42.70
2023-09-04T17:55:15.410Z,42.42
2023-09-04T17:57:41.580Z,42.45
2023-09-04T18:00:07.805Z,42.56
2023-09-04T18:02:34.048Z,42.86
2023-09-04T18:05:00.310Z,43.47
2023-09-04T18:07:26.505Z,42.78
2023-09-04T18:09:52.674Z,42.47
2023-09-04T18:12:18.840Z,43.42
2023-09-04T18:14:45.003Z,43.67
2023-09-04T18:17:11.266Z,43.05
2023-09-04T18:19:37.428Z,42.36
2023-09-04T18:22:03.968Z,43.32
2023-09-04T18:24:30.760Z,42.95
2023-09-04T18:26:56.927Z,43.63
2023-09-04T18:29:23.110Z,43.82
2023-09-04T18:31:49.294Z,44.34
2023-09-04T18:34:15.473Z,45.32
2023-09-04T18:36:41.628Z,44.45
2023-09-04T18:39:07.784Z,43.64
2023-09-04T18:41:33.948Z,44.44
2023-09-04T18:44:00.151Z,44.46
2023-09-04T18:46:26.361Z,44.68
2023-09-04T18:48:52.581Z,44.75
2023-09-04T18:51:18.770Z,43.86
2023-09-04T18:53:44.942Z,44.30
2023-09-04T18:56:11.111Z,45.16
2023-09-04T18:58:37.281Z,45.61
2023-09-04T19:01:03.582Z,46.25
2023-09-04T19:03:29.808Z,45.65
2023-09-04T19:05:55.969Z,43.69
2023-09-04T19:08:22.125Z,45.38
2023-09-04T19:10:48.299Z,45.80
2023-09-04T19:13:14.472Z,45.50
2023-09-04T19:15:40.637Z,45.64
2023-09-04T19:18:06.853Z,45.96
2023-09-04T19:20:33.034Z,46.23
2023-09-04T19:23:00.900Z,45.35
2023-09-04T19:25:28.358Z,45.25
2023-09-04T19:27:54.536Z,46.05
2023-09-04T19:30:20.686Z,45.85
2023-09-04T19:32:46.856Z,46.03
2023-09-04T19:35:13.053Z,45.77
2023-09-04T19:37:39.209Z,44.38
2023-09-04T19:40:06.239Z,45.00
2023-09-04T19:42:32.580Z,46.59
2023-09-04T19:44:58.751Z,45.73
2023-09-04T19:47:24.934Z,44.66
2023-09-04T19:49:51.136Z,45.02
2023-09-04T19:52:17.286Z,45.58
2023-09-04T19:54:43.467Z,45.95
2023-09-04T19:57:09.636Z,46.06
2023-09-04T19:59:35.801Z,45.75
2023-09-04T20:02:01.984Z,46.40
2023-09-04T20:04:28.135Z,45.63
2023-09-04T20:06:54.296Z,45.31
2023-09-04T20:09:20.469Z,45.78
2023-09-04T20:11:46.630Z,46.50
2023-09-04T20:14:12.826Z,45.51
2023-09-04T20:16:38.978Z,44.99
2023-09-04T20:19:05.915Z,46.29
2023-09-04T20:21:32.743Z,47.08
2023-09-04T20:23:58.883Z,47.22
2023-09-04T20:26:29.116Z,47.29
2023-09-04T20:29:01.656Z,47.57
2023-09-04T20:31:27.885Z,46.91
2023-09-04T20:33:54.108Z,47.06
2023-09-04T20:36:20.273Z,47.25
2023-09-04T20:38:46.448Z,47.85
2023-09-04T20:41:12.630Z,48.57
2023-09-04T20:43:38.800Z,48.71
2023-09-04T20:46:04.949Z,49.05
2023-09-04T20:48:31.103Z,49.08
2023-09-04T20:50:57.282Z,49.25
2023-09-04T20:53:23.747Z,49.29
2023-09-04T20:55:50.085Z,49.22
2023-09-04T20:58:16.238Z,48.95
2023-09-04T21:00:42.445Z,47.98
2023-09-04T21:03:08.642Z,46.59
2023-09-04T21:05:34.800Z,47.33
2023-09-04T21:08:00.980Z,47.32
2023-09-04T21:10:27.139Z,48.60
2023-09-04T21:12:53.300Z,49.73
2023-09-04T21:15:19.484Z,48.77
2023-09-04T21:17:45.685Z,48.31
2023-09-04T21:20:11.880Z,48.07
2023-09-04T21:22:38.046Z,47.91
2023-09-04T21:25:04.200Z,48.44
2023-09-04T21:27:30.348Z,49.20
2023-09-04T21:29:56.496Z,48.74
2023-09-04T21:32:22.666Z,48.83
2023-09-04T21:34:48.821Z,48.77
2023-09-04T21:37:14.998Z,49.92
2023-09-04T21:39:41.159Z,49.93
2023-09-04T21:42:07.360Z,50.25
2023-09-04T21:44:33.521Z,51.14
2023-09-04T21:46:59.666Z,51.36
2023-09-04T21:49:25.851Z,51.53
2023-09-04T21:51:52.013Z,50.80
2023-09-04T21:54:18.178Z,49.96
2023-09-04T21:56:44.352Z,49.87
2023-09-04T21:59:10.614Z,50.51
2023-09-04T22:01:36.811Z,50.44
2023-09-04T22:04:03.049Z,51.54
2023-09-04T22:06:29.261Z,51.26
2023-09-04T22:08:55.420Z,51.37
2023-09-04T22:11:21.606Z,51.05
2023-09-04T22:13:47.762Z,51.24
2023-09-04T22:16:13.998Z,51.23
2023-09-04T22:18:40.254Z,51.41
2023-09-04T22:21:06.452Z,50.77
2023-09-04T22:23:32.627Z,51.22
2023-09-04T22:25:58.808Z,51.09
2023-09-04T22:28:24.991Z,50.84
2023-09-04T22:30:51.192Z,51.16
2023-09-04T22:33:17.371Z,51.55
2023-09-04T22:35:43.537Z,51.62
2023-09-04T22:38:09.687Z,51.45
2023-09-04T22:40:35.856Z,50.97
2023-09-04T22:43:02.111Z,51.53
2023-09-04T22:45:28.270Z,51.20
2023-09-04T22:47:54.487Z,51.61
2023-09-04T22:50:20.670Z,51.95
2023-09-04T22:52:59.852Z,52.54
2023-09-04T22:55:32.396Z,51.75
2023-09-04T22:57:58.577Z,51.73
2023-09-04T23:00:24.746Z,52.26
2023-09-04T23:02:51.009Z,52.44
2023-09-04T23:05:17.225Z,52.70
2023-09-04T23:07:43.414Z,53.20
2023-09-04T23:10:09.569Z,52.75
2023-09-04T23:12:35.715Z,52.66
2023-09-04T23:15:01.898Z,51.97
2023-09-04T23:17:28.069Z,51.86
2023-09-04T23:19:54.248Z,51.83
2023-09-04T23:22:20.416Z,51.64
2023-09-04T23:24:46.577Z,51.31
2023-09-04T23:27:13.017Z,51.98
2023-09-04T23:29:39.250Z,52.32
2023-09-04T23:32:05.413Z,52.37
2023-09-04T23:34:31.586Z,52.53
2023-09-04T23:36:57.748Z,52.68
2023-09-04T23:39:23.916Z,52.33
2023-09-04T23:41:50.088Z,51.86
2023-09-04T23:44:16.253Z,51.03
2023-09-04T23:46:42.412Z,51.16
2023-09-04T23:49:08.664Z,50.37
2023-09-04T23:51:34.829Z,50.73
2023-09-04T23:54:00.999Z,51.55
2023-09-04T23:56:27.173Z,51.83
2023-09-04T23:58:53.333Z,51.45
